Map

Track Data

SID SEASON NUMBER BASIN SUBBASIN NAME ISO_TIME NATURE LAT LON WMO_WIND WMO_PRES WMO_AGENCY TRACK_TYPE DIST2LAND LANDFALL IFLAG USA_AGENCY USA_ATCF_ID USA_LAT USA_LON USA_RECORD USA_STATUS USA_WIND USA_PRES USA_SSHS USA_R34_NE USA_R34_SE USA_R34_SW USA_R34_NW USA_R50_NE USA_R50_SE USA_R50_SW USA_R50_NW USA_R64_NE USA_R64_SE USA_R64_SW USA_R64_NW USA_POCI USA_ROCI USA_RMW USA_EYE TOKYO_LAT TOKYO_LON TOKYO_GRADE TOKYO_WIND TOKYO_PRES TOKYO_R50_DIR TOKYO_R50_LONG TOKYO_R50_SHORT TOKYO_R30_DIR TOKYO_R30_LONG TOKYO_R30_SHORT TOKYO_LAND CMA_LAT CMA_LON CMA_CAT CMA_WIND CMA_PRES HKO_LAT HKO_LON HKO_CAT HKO_WIND HKO_PRES NEWDELHI_LAT NEWDELHI_LON NEWDELHI_GRADE NEWDELHI_WIND NEWDELHI_PRES NEWDELHI_CI NEWDELHI_DP NEWDELHI_POCI REUNION_LAT REUNION_LON REUNION_TYPE REUNION_WIND REUNION_PRES REUNION_TNUM REUNION_CI REUNION_RMW REUNION_R34_NE REUNION_R34_SE REUNION_R34_SW REUNION_R34_NW REUNION_R50_NE REUNION_R50_SE REUNION_R50_SW REUNION_R50_NW REUNION_R64_NE REUNION_R64_SE REUNION_R64_SW REUNION_R64_NW BOM_LAT BOM_LON BOM_TYPE BOM_WIND BOM_PRES BOM_TNUM BOM_CI BOM_RMW BOM_R34_NE BOM_R34_SE BOM_R34_SW BOM_R34_NW BOM_R50_NE BOM_R50_SE BOM_R50_SW BOM_R50_NW BOM_R64_NE BOM_R64_SE BOM_R64_SW BOM_R64_NW BOM_ROCI BOM_POCI BOM_EYE BOM_POS_METHOD BOM_PRES_METHOD NADI_LAT NADI_LON NADI_CAT NADI_WIND NADI_PRES WELLINGTON_LAT WELLINGTON_LON WELLINGTON_WIND WELLINGTON_PRES DS824_LAT DS824_LON DS824_STAGE DS824_WIND DS824_PRES TD9636_LAT TD9636_LON TD9636_STAGE TD9636_WIND TD9636_PRES TD9635_LAT TD9635_LON TD9635_WIND TD9635_PRES TD9635_ROCI NEUMANN_LAT NEUMANN_LON NEUMANN_CLASS NEUMANN_WIND NEUMANN_PRES MLC_LAT MLC_LON MLC_CLASS MLC_WIND MLC_PRES USA_GUST BOM_GUST BOM_GUST_PER REUNION_GUST REUNION_GUST_PER USA_SEAHGT USA_SEARAD_NE USA_SEARAD_SE USA_SEARAD_SW USA_SEARAD_NW STORM_SPEED STORM_DIR
1955212N28273 1955 47 NA GM BRENDA 1955-07-31 06:00:00 TS 27.5000 -87.5000 30 hurdat_atl main 229 216 O_____________ hurdat_atl AL011955 27.5000 -87.5000 TD 30 -1 4 284
1955212N28273 1955 47 NA GM BRENDA 1955-07-31 09:00:00 TS 27.5451 -87.7075 main 216 195 P_____________ AL011955 27.5451 -87.7075 TD 35 0 4 286
1955212N28273 1955 47 NA GM BRENDA 1955-07-31 12:00:00 TS 27.6000 -87.9000 40 hurdat_atl main 195 174 O_____________ hurdat_atl AL011955 27.6000 -87.9000 TS 40 0 3 293
1955212N28273 1955 47 NA GM BRENDA 1955-07-31 15:00:00 TS 27.6775 -88.0650 main 174 160 P_____________ AL011955 27.6775 -88.0650 TS 45 0 3 307
1955212N28273 1955 47 NA GM BRENDA 1955-07-31 18:00:00 TS 27.8000 -88.2000 50 hurdat_atl main 160 136 O_____________ hurdat_atl AL011955 27.8000 -88.2000 TS 50 0 4 325
1955212N28273 1955 47 NA GM BRENDA 1955-07-31 21:00:00 TS 27.9850 -88.3075 main 136 112 P_____________ AL011955 27.9850 -88.3075 TS 55 0 4 336
1955212N28273 1955 47 NA GM BRENDA 1955-08-01 00:00:00 TS 28.2000 -88.4000 60 hurdat_atl main 112 88 O_____________ hurdat_atl AL011955 28.2000 -88.4000 TS 60 0 4 338
1955212N28273 1955 47 NA GM BRENDA 1955-08-01 03:00:00 TS 28.3774 -88.4852 main 88 66 P_____________ AL011955 28.3774 -88.4852 TS 60 0 4 336
1955212N28273 1955 47 NA GM BRENDA 1955-08-01 06:00:00 TS 28.6000 -88.6000 60 hurdat_atl main 66 29 O_____________ hurdat_atl AL011955 28.6000 -88.6000 TS 60 0 6 336
1955212N28273 1955 47 NA GM BRENDA 1955-08-01 09:00:00 TS 28.9462 -88.7786 main 29 9 P_____________ AL011955 28.9462 -88.7786 TS 60 0 8 333
1955212N28273 1955 47 NA GM BRENDA 1955-08-01 12:00:00 TS 29.3000 -89.0000 60 hurdat_atl main 14 9 O_____________ hurdat_atl AL011955 29.3000 -89.0000 TS 60 0 6 323
1955212N28273 1955 47 NA GM BRENDA 1955-08-01 15:00:00 TS 29.4631 -89.2232 main 22 0 P_____________ AL011955 29.4631 -89.2232 TS 57 0 6 319
1955212N28273 1955 47 NA GM BRENDA 1955-08-01 17:00:00 TS 29.7000 -89.4000 55 hurdat_atl main 0 0 O_____________ hurdat_atl AL011955 29.7000 -89.4000 L TS 55 0 10 331
1955212N28273 1955 47 NA NA BRENDA 1955-08-01 18:00:00 TS 29.9000 -89.5000 55 hurdat_atl main 0 0 O_____________ hurdat_atl AL011955 29.9000 -89.5000 TS 55 0 11 326
1955212N28273 1955 47 NA NA BRENDA 1955-08-01 21:00:00 TS 30.3294 -89.8918 main 0 0 P_____________ AL011955 30.3294 -89.8918 TS 47 0 10 312
1955212N28273 1955 47 NA NA BRENDA 1955-08-02 00:00:00 TS 30.6000 -90.4000 40 hurdat_atl main 0 0 O_____________ hurdat_atl AL011955 30.6000 -90.4000 TS 40 0 11 300
1955212N28273 1955 47 NA NA BRENDA 1955-08-02 03:00:00 TS 30.8725 -90.9777 main 0 0 P_____________ AL011955 30.8725 -90.9777 TS 35 0 11 296
1955212N28273 1955 47 NA NA BRENDA 1955-08-02 06:00:00 TS 31.1000 -91.6000 30 hurdat_atl main 0 0 O_____________ hurdat_atl AL011955 31.1000 -91.6000 TD 30 -1 11 293
1955212N28273 1955 47 NA NA BRENDA 1955-08-02 09:00:00 TS 31.3149 -92.2152 main 0 0 P_____________ AL011955 31.3149 -92.2152 TD 27 -1 11 291
1955212N28273 1955 47 NA NA BRENDA 1955-08-02 12:00:00 TS 31.5000 -92.8000 25 hurdat_atl main 0 0 O_____________ hurdat_atl AL011955 31.5000 -92.8000 TD 25 -1 10 290
1955212N28273 1955 47 NA NA BRENDA 1955-08-02 15:00:00 TS 31.6497 -93.3229 main 0 0 P_____________ AL011955 31.6497 -93.3229 TD 25 -1 9 289
1955212N28273 1955 47 NA NA BRENDA 1955-08-02 18:00:00 TS 31.8000 -93.8000 25 hurdat_atl main 0 0 O_____________ hurdat_atl AL011955 31.8000 -93.8000 TD 25 -1 9 292
1955212N28273 1955 47 NA NA BRENDA 1955-08-02 21:00:00 TS 31.9851 -94.3024 main 0 0 P_____________ AL011955 31.9851 -94.3024 TD 25 -1 9 298
1955212N28273 1955 47 NA NA BRENDA 1955-08-03 00:00:00 TS 32.2000 -94.7000 25 hurdat_atl main 0 0 O_____________ hurdat_atl AL011955 32.2000 -94.7000 TD 25 -1 7 312
1955212N28273 1955 47 NA NA BRENDA 1955-08-03 03:00:00 TS 32.4424 -94.9076 main 0 0 P_____________ AL011955 32.4424 -94.9076 TD 22 -1 6 333
1955212N28273 1955 47 NA NA BRENDA 1955-08-03 06:00:00 TS 32.7000 -95.0000 20 hurdat_atl main 0 O_____________ hurdat_atl AL011955 32.7000 -95.0000 TD 20 -1 5 344

About IBTrACS Database

This database is a web-friendly format of International Best Track Archive for Climate Stewardship (IBTrACS), a global best track data archive curated by NOAA dating back to 1842.

Updated: 2021-10-25